Etusivu
METAR-TAF:

METAR-TAF

Lentoasemat :

Payerne, Sveitsi

Leveyspiiri: 46-49N, Pituuspiiri: 006-57E, korkeus merenpinnasta: 490 m

Tämänhetkinen sää

Tämä raportti tehtiin 25 minuuttia sitten, kello 21.50 UTC
Tuuli 2 kn eri suunnista
Lämpötila 1°C
Kosteus 86%
Ilmanpaine 1016 hPa
Näkyvyys 10 km tai enemmän

METAR: LSMP 182150Z AUTO VRB02KT 9999NDV NCD 01/M01 Q1016 RMK

Aika: 23:15 (22:15 UTC)


TAF: puuttuu

Säähavainnot ja -ennusteet yli 4000 lentoasemalta (METAR- ja TAF-raportit).

Käytössä olevat sääasemat on merkitty karttaan keltaisilla ja punaisilla pisteillä.

Aseta hiiri pisteen päälle nähdäksesi sääaseman nimen.

Klikkaa sitten nähdäksesi säähavainnot ja -ennusteet.

Kartan vaihtaminen: klikkaa mustalla rastilla varustettuja vihreitä pisteitä, niin voit zoomata sisään; viivalla varustettua vihreää pistettä, niin voit zoomata ulos tai vihreitä nuolia, niin pääset viereisille kartoille.


METAR-TAF: